sensor_id;sensor_type;location;lat;lon;timestamp;P1;durP1;ratioP1;P2;durP2;ratioP2
32329;SDS011;18807;52.434;13.238;2023-05-09T00:00:23;5.25;;;4.07;;
32329;SDS011;18807;52.434;13.238;2023-05-09T00:07:57;5.57;;;3.60;;
32329;SDS011;18807;52.434;13.238;2023-05-09T00:15:32;6.38;;;4.78;;
32329;SDS011;18807;52.434;13.238;2023-05-09T00:23:06;6.03;;;3.60;;
32329;SDS011;18807;52.434;13.238;2023-05-09T00:30:42;5.00;;;4.28;;
32329;SDS011;18807;52.434;13.238;2023-05-09T00:38:16;4.47;;;3.65;;
32329;SDS011;18807;52.434;13.238;2023-05-09T00:45:51;12.75;;;4.50;;
32329;SDS011;18807;52.434;13.238;2023-05-09T00:53:25;5.88;;;4.10;;
32329;SDS011;18807;52.434;13.238;2023-05-09T01:01:01;9.07;;;4.10;;
32329;SDS011;18807;52.434;13.238;2023-05-09T01:08:39;5.85;;;3.67;;
32329;SDS011;18807;52.434;13.238;2023-05-09T01:16:20;8.10;;;4.72;;
32329;SDS011;18807;52.434;13.238;2023-05-09T01:24:17;4.43;;;3.42;;
32329;SDS011;18807;52.434;13.238;2023-05-09T01:31:59;7.07;;;4.07;;
32329;SDS011;18807;52.434;13.238;2023-05-09T01:39:37;4.57;;;3.55;;
32329;SDS011;18807;52.434;13.238;2023-05-09T01:47:15;5.00;;;3.60;;
32329;SDS011;18807;52.434;13.238;2023-05-09T01:55:10;6.50;;;3.33;;
32329;SDS011;18807;52.434;13.238;2023-05-09T02:10:21;6.13;;;3.73;;
32329;SDS011;18807;52.434;13.238;2023-05-09T02:17:58;5.13;;;3.40;;
32329;SDS011;18807;52.434;13.238;2023-05-09T02:25:32;6.30;;;3.47;;
32329;SDS011;18807;52.434;13.238;2023-05-09T02:33:09;5.47;;;3.28;;
32329;SDS011;18807;52.434;13.238;2023-05-09T02:40:45;6.22;;;3.25;;
32329;SDS011;18807;52.434;13.238;2023-05-09T02:48:24;4.05;;;3.30;;
32329;SDS011;18807;52.434;13.238;2023-05-09T02:55:59;6.93;;;3.72;;
32329;SDS011;18807;52.434;13.238;2023-05-09T03:03:34;6.47;;;3.53;;
32329;SDS011;18807;52.434;13.238;2023-05-09T03:11:08;3.38;;;2.63;;
32329;SDS011;18807;52.434;13.238;2023-05-09T03:18:44;3.50;;;2.77;;
32329;SDS011;18807;52.434;13.238;2023-05-09T03:26:18;4.45;;;3.28;;
32329;SDS011;18807;52.434;13.238;2023-05-09T03:33:56;4.40;;;2.97;;
32329;SDS011;18807;52.434;13.238;2023-05-09T03:41:30;4.40;;;3.22;;
32329;SDS011;18807;52.434;13.238;2023-05-09T03:49:05;5.00;;;3.28;;
32329;SDS011;18807;52.434;13.238;2023-05-09T03:56:40;5.65;;;3.10;;
32329;SDS011;18807;52.434;13.238;2023-05-09T04:04:33;7.00;;;3.20;;
32329;SDS011;18807;52.434;13.238;2023-05-09T04:12:07;4.20;;;2.88;;
32329;SDS011;18807;52.434;13.238;2023-05-09T04:19:42;5.23;;;3.20;;
32329;SDS011;18807;52.434;13.238;2023-05-09T04:27:16;5.20;;;2.95;;
32329;SDS011;18807;52.434;13.238;2023-05-09T04:34:51;6.00;;;3.13;;
32329;SDS011;18807;52.434;13.238;2023-05-09T04:42:26;7.82;;;3.97;;
32329;SDS011;18807;52.434;13.238;2023-05-09T04:50:12;7.00;;;3.72;;
32329;SDS011;18807;52.434;13.238;2023-05-09T04:58:05;4.90;;;3.35;;
32329;SDS011;18807;52.434;13.238;2023-05-09T05:05:41;6.07;;;3.38;;
32329;SDS011;18807;52.434;13.238;2023-05-09T05:13:15;7.20;;;3.50;;
32329;SDS011;18807;52.434;13.238;2023-05-09T05:20:51;6.07;;;3.63;;
32329;SDS011;18807;52.434;13.238;2023-05-09T05:28:25;4.43;;;3.05;;
32329;SDS011;18807;52.434;13.238;2023-05-09T05:36:00;6.87;;;3.53;;
32329;SDS011;18807;52.434;13.238;2023-05-09T05:43:34;8.02;;;3.50;;
32329;SDS011;18807;52.434;13.238;2023-05-09T05:51:09;5.40;;;3.33;;
32329;SDS011;18807;52.434;13.238;2023-05-09T05:58:43;7.22;;;3.42;;
32329;SDS011;18807;52.434;13.238;2023-05-09T06:06:18;4.97;;;3.00;;
32329;SDS011;18807;52.434;13.238;2023-05-09T06:13:53;8.13;;;3.45;;
32329;SDS011;18807;52.434;13.238;2023-05-09T06:21:29;6.68;;;3.22;;
32329;SDS011;18807;52.434;13.238;2023-05-09T06:29:05;8.23;;;2.92;;
32329;SDS011;18807;52.434;13.238;2023-05-09T06:36:41;4.90;;;2.97;;
32329;SDS011;18807;52.434;13.238;2023-05-09T06:44:14;3.97;;;2.80;;
32329;SDS011;18807;52.434;13.238;2023-05-09T06:51:50;7.28;;;3.30;;
32329;SDS011;18807;52.434;13.238;2023-05-09T06:59:24;10.48;;;3.40;;
32329;SDS011;18807;52.434;13.238;2023-05-09T07:07:03;7.77;;;3.27;;
32329;SDS011;18807;52.434;13.238;2023-05-09T07:14:40;3.88;;;3.05;;
32329;SDS011;18807;52.434;13.238;2023-05-09T07:22:15;3.72;;;2.67;;
32329;SDS011;18807;52.434;13.238;2023-05-09T07:29:49;7.40;;;3.42;;
32329;SDS011;18807;52.434;13.238;2023-05-09T07:37:27;7.07;;;3.53;;
32329;SDS011;18807;52.434;13.238;2023-05-09T07:45:02;6.32;;;3.45;;
32329;SDS011;18807;52.434;13.238;2023-05-09T07:52:39;4.75;;;3.00;;
32329;SDS011;18807;52.434;13.238;2023-05-09T08:00:13;6.05;;;3.22;;
32329;SDS011;18807;52.434;13.238;2023-05-09T08:07:49;4.47;;;3.15;;
32329;SDS011;18807;52.434;13.238;2023-05-09T08:15:23;5.10;;;3.30;;
32329;SDS011;18807;52.434;13.238;2023-05-09T08:22:58;5.27;;;3.03;;
32329;SDS011;18807;52.434;13.238;2023-05-09T08:30:32;9.82;;;3.00;;
32329;SDS011;18807;52.434;13.238;2023-05-09T08:38:08;6.10;;;2.70;;
32329;SDS011;18807;52.434;13.238;2023-05-09T08:45:44;3.60;;;2.30;;
32329;SDS011;18807;52.434;13.238;2023-05-09T08:53:21;4.93;;;2.53;;
32329;SDS011;18807;52.434;13.238;2023-05-09T09:00:55;3.83;;;2.70;;
32329;SDS011;18807;52.434;13.238;2023-05-09T09:08:32;4.30;;;2.22;;
32329;SDS011;18807;52.434;13.238;2023-05-09T09:16:08;5.47;;;2.38;;
32329;SDS011;18807;52.434;13.238;2023-05-09T09:23:48;2.55;;;2.28;;
32329;SDS011;18807;52.434;13.238;2023-05-09T09:31:42;2.63;;;1.83;;
32329;SDS011;18807;52.434;13.238;2023-05-09T09:39:19;4.15;;;1.90;;
32329;SDS011;18807;52.434;13.238;2023-05-09T09:46:53;6.07;;;2.22;;
32329;SDS011;18807;52.434;13.238;2023-05-09T09:54:46;4.18;;;1.90;;
32329;SDS011;18807;52.434;13.238;2023-05-09T10:02:22;3.60;;;2.72;;
32329;SDS011;18807;52.434;13.238;2023-05-09T10:09:58;9.98;;;2.20;;
32329;SDS011;18807;52.434;13.238;2023-05-09T10:17:32;5.55;;;2.00;;
32329;SDS011;18807;52.434;13.238;2023-05-09T10:25:09;2.80;;;2.00;;
32329;SDS011;18807;52.434;13.238;2023-05-09T10:32:51;5.68;;;2.80;;
32329;SDS011;18807;52.434;13.238;2023-05-09T10:40:27;4.40;;;2.40;;
32329;SDS011;18807;52.434;13.238;2023-05-09T10:48:03;5.13;;;2.45;;
32329;SDS011;18807;52.434;13.238;2023-05-09T10:55:48;7.07;;;2.33;;
32329;SDS011;18807;52.434;13.238;2023-05-09T11:03:24;4.22;;;2.63;;
32329;SDS011;18807;52.434;13.238;2023-05-09T11:11:04;6.47;;;2.97;;
32329;SDS011;18807;52.434;13.238;2023-05-09T11:18:49;5.47;;;2.70;;
32329;SDS011;18807;52.434;13.238;2023-05-09T11:34:03;5.82;;;2.35;;
32329;SDS011;18807;52.434;13.238;2023-05-09T11:41:40;6.50;;;2.80;;
32329;SDS011;18807;52.434;13.238;2023-05-09T11:49:15;4.20;;;2.33;;
32329;SDS011;18807;52.434;13.238;2023-05-09T11:56:52;4.95;;;2.13;;
32329;SDS011;18807;52.434;13.238;2023-05-09T12:04:44;5.78;;;2.80;;
32329;SDS011;18807;52.434;13.238;2023-05-09T12:12:40;5.32;;;2.00;;
32329;SDS011;18807;52.434;13.238;2023-05-09T12:20:16;4.82;;;2.50;;
32329;SDS011;18807;52.434;13.238;2023-05-09T12:27:51;5.65;;;2.58;;
32329;SDS011;18807;52.434;13.238;2023-05-09T12:35:26;3.78;;;2.25;;
32329;SDS011;18807;52.434;13.238;2023-05-09T12:43:01;3.47;;;2.15;;
32329;SDS011;18807;52.434;13.238;2023-05-09T12:50:35;2.50;;;2.08;;
32329;SDS011;18807;52.434;13.238;2023-05-09T12:58:13;5.18;;;2.78;;
32329;SDS011;18807;52.434;13.238;2023-05-09T13:05:52;11.55;;;3.90;;
32329;SDS011;18807;52.434;13.238;2023-05-09T13:13:29;7.43;;;2.70;;
32329;SDS011;18807;52.434;13.238;2023-05-09T13:21:20;7.60;;;2.42;;
32329;SDS011;18807;52.434;13.238;2023-05-09T13:28:56;6.60;;;2.92;;
32329;SDS011;18807;52.434;13.238;2023-05-09T13:36:30;7.40;;;2.75;;
32329;SDS011;18807;52.434;13.238;2023-05-09T13:44:06;5.97;;;2.50;;
32329;SDS011;18807;52.434;13.238;2023-05-09T13:51:40;9.45;;;2.42;;
32329;SDS011;18807;52.434;13.238;2023-05-09T13:59:15;6.55;;;2.30;;
32329;SDS011;18807;52.434;13.238;2023-05-09T14:06:49;8.27;;;3.22;;
32329;SDS011;18807;52.434;13.238;2023-05-09T14:14:25;4.37;;;3.10;;
32329;SDS011;18807;52.434;13.238;2023-05-09T14:21:59;7.18;;;2.53;;
32329;SDS011;18807;52.434;13.238;2023-05-09T14:29:35;7.30;;;2.80;;
32329;SDS011;18807;52.434;13.238;2023-05-09T14:37:28;4.53;;;2.40;;
32329;SDS011;18807;52.434;13.238;2023-05-09T14:45:05;9.47;;;2.73;;
32329;SDS011;18807;52.434;13.238;2023-05-09T14:52:42;6.53;;;2.50;;
32329;SDS011;18807;52.434;13.238;2023-05-09T15:00:17;4.38;;;2.35;;
32329;SDS011;18807;52.434;13.238;2023-05-09T15:08:09;5.20;;;2.67;;
32329;SDS011;18807;52.434;13.238;2023-05-09T15:15:45;5.33;;;2.30;;
32329;SDS011;18807;52.434;13.238;2023-05-09T15:23:19;3.38;;;2.40;;
32329;SDS011;18807;52.434;13.238;2023-05-09T15:30:55;4.10;;;2.67;;
32329;SDS011;18807;52.434;13.238;2023-05-09T15:38:31;6.90;;;2.67;;
32329;SDS011;18807;52.434;13.238;2023-05-09T15:46:08;5.20;;;2.50;;
32329;SDS011;18807;52.434;13.238;2023-05-09T15:53:42;4.18;;;3.03;;
32329;SDS011;18807;52.434;13.238;2023-05-09T16:01:17;4.20;;;2.95;;
32329;SDS011;18807;52.434;13.238;2023-05-09T16:08:52;3.15;;;2.40;;
32329;SDS011;18807;52.434;13.238;2023-05-09T16:16:27;4.38;;;2.47;;
32329;SDS011;18807;52.434;13.238;2023-05-09T16:24:02;5.50;;;2.80;;
32329;SDS011;18807;52.434;13.238;2023-05-09T16:31:38;8.00;;;3.78;;
32329;SDS011;18807;52.434;13.238;2023-05-09T16:39:12;7.43;;;4.15;;
32329;SDS011;18807;52.434;13.238;2023-05-09T16:46:48;3.47;;;3.17;;
32329;SDS011;18807;52.434;13.238;2023-05-09T16:54:22;4.18;;;2.95;;
32329;SDS011;18807;52.434;13.238;2023-05-09T17:01:57;4.43;;;2.60;;
32329;SDS011;18807;52.434;13.238;2023-05-09T17:09:31;5.57;;;2.95;;
32329;SDS011;18807;52.434;13.238;2023-05-09T17:17:06;6.25;;;3.28;;
32329;SDS011;18807;52.434;13.238;2023-05-09T17:24:40;6.90;;;3.67;;
32329;SDS011;18807;52.434;13.238;2023-05-09T17:32:16;6.47;;;3.07;;
32329;SDS011;18807;52.434;13.238;2023-05-09T17:39:50;8.70;;;3.05;;
32329;SDS011;18807;52.434;13.238;2023-05-09T17:47:26;6.60;;;3.77;;
32329;SDS011;18807;52.434;13.238;2023-05-09T17:55:00;8.30;;;3.60;;
32329;SDS011;18807;52.434;13.238;2023-05-09T18:02:36;7.47;;;4.22;;
32329;SDS011;18807;52.434;13.238;2023-05-09T18:10:11;5.03;;;3.30;;
32329;SDS011;18807;52.434;13.238;2023-05-09T18:17:46;5.50;;;3.30;;
32329;SDS011;18807;52.434;13.238;2023-05-09T18:25:21;5.07;;;3.50;;
32329;SDS011;18807;52.434;13.238;2023-05-09T18:32:57;7.40;;;3.63;;
32329;SDS011;18807;52.434;13.238;2023-05-09T18:40:32;11.85;;;4.10;;
32329;SDS011;18807;52.434;13.238;2023-05-09T18:48:09;7.28;;;3.75;;
32329;SDS011;18807;52.434;13.238;2023-05-09T18:55:44;6.00;;;3.30;;
32329;SDS011;18807;52.434;13.238;2023-05-09T19:03:38;4.07;;;3.05;;
32329;SDS011;18807;52.434;13.238;2023-05-09T19:11:17;9.02;;;3.50;;
32329;SDS011;18807;52.434;13.238;2023-05-09T19:18:54;5.83;;;2.77;;
32329;SDS011;18807;52.434;13.238;2023-05-09T19:26:29;5.38;;;3.08;;
32329;SDS011;18807;52.434;13.238;2023-05-09T19:34:04;7.93;;;3.03;;
32329;SDS011;18807;52.434;13.238;2023-05-09T19:41:38;5.32;;;2.65;;
32329;SDS011;18807;52.434;13.238;2023-05-09T19:49:14;4.20;;;2.90;;
32329;SDS011;18807;52.434;13.238;2023-05-09T19:56:49;3.90;;;2.45;;
32329;SDS011;18807;52.434;13.238;2023-05-09T20:04:24;5.47;;;2.30;;
32329;SDS011;18807;52.434;13.238;2023-05-09T20:12:00;5.28;;;2.75;;
32329;SDS011;18807;52.434;13.238;2023-05-09T20:19:36;5.43;;;2.60;;
32329;SDS011;18807;52.434;13.238;2023-05-09T20:27:10;8.70;;;2.85;;
32329;SDS011;18807;52.434;13.238;2023-05-09T20:34:45;5.43;;;2.22;;
32329;SDS011;18807;52.434;13.238;2023-05-09T20:42:19;7.65;;;2.97;;
32329;SDS011;18807;52.434;13.238;2023-05-09T20:49:56;4.15;;;2.38;;
32329;SDS011;18807;52.434;13.238;2023-05-09T20:57:30;5.53;;;3.42;;
32329;SDS011;18807;52.434;13.238;2023-05-09T21:05:06;5.03;;;3.47;;
32329;SDS011;18807;52.434;13.238;2023-05-09T21:12:42;6.15;;;3.30;;
32329;SDS011;18807;52.434;13.238;2023-05-09T21:20:18;5.73;;;3.37;;
32329;SDS011;18807;52.434;13.238;2023-05-09T21:27:52;6.88;;;3.40;;
32329;SDS011;18807;52.434;13.238;2023-05-09T21:35:27;5.32;;;4.00;;
32329;SDS011;18807;52.434;13.238;2023-05-09T21:43:02;7.13;;;5.28;;
32329;SDS011;18807;52.434;13.238;2023-05-09T21:50:55;9.75;;;4.07;;
32329;SDS011;18807;52.434;13.238;2023-05-09T21:58:29;7.53;;;4.07;;
32329;SDS011;18807;52.434;13.238;2023-05-09T22:06:05;5.45;;;3.78;;
32329;SDS011;18807;52.434;13.238;2023-05-09T22:13:39;5.05;;;4.53;;
32329;SDS011;18807;52.434;13.238;2023-05-09T22:21:15;6.77;;;4.20;;
32329;SDS011;18807;52.434;13.238;2023-05-09T22:28:49;11.10;;;4.60;;
32329;SDS011;18807;52.434;13.238;2023-05-09T22:36:24;6.13;;;4.20;;
32329;SDS011;18807;52.434;13.238;2023-05-09T22:43:59;5.07;;;4.03;;
32329;SDS011;18807;52.434;13.238;2023-05-09T22:51:34;5.45;;;4.30;;
32329;SDS011;18807;52.434;13.238;2023-05-09T22:59:08;9.10;;;4.47;;
32329;SDS011;18807;52.434;13.238;2023-05-09T23:06:43;7.13;;;4.75;;
32329;SDS011;18807;52.434;13.238;2023-05-09T23:14:18;7.72;;;4.90;;
32329;SDS011;18807;52.434;13.238;2023-05-09T23:21:53;7.07;;;4.90;;
32329;SDS011;18807;52.434;13.238;2023-05-09T23:29:29;7.88;;;5.82;;
32329;SDS011;18807;52.434;13.238;2023-05-09T23:37:06;8.32;;;4.78;;
32329;SDS011;18807;52.434;13.238;2023-05-09T23:44:40;6.38;;;4.75;;
32329;SDS011;18807;52.434;13.238;2023-05-09T23:52:15;6.97;;;4.80;;
32329;SDS011;18807;52.434;13.238;2023-05-09T23:59:49;6.18;;;4.70;;
